Center Point, IA

9:30 PM CDT on August 28, 2014 (GMT -0500)
Southern Urbana | Change Station
CLOSE
Current Station
Personal Weather Station
Location: Center Point, IA
Elevation: 899 ft
Nearby Weather Stations

Elev 899 ft 42.22 °N, 91.87 °W | Updated 55 minutes ago

Overcast
Overcast
68.3 °F
Feels Like 68.3 °F
N
6.0
Wind Variable Wind from SSE
Gusts 7.0 mph

Today
High -- | Low -- °F
--% Chance of Precip.
Yesterday
High -- | Low -- °F
Precip. -- in
6:28 AM 7:47 PM
Waxing Crescent, 11% visible
Pressure 29.95 in
Visibility 10.0 miles
Clouds Overcast 900 ft
Dew Point 68 °F
Humidity 99%
Rainfall 0.11 in
Snow Depth Not available.
UV 0 out of 12
Pollen 1.00 out of 12
Air Quality Not available.
Flu Activity Not available.
METAR KVTI 290215Z AUTO 13004KT 10SM OVC009 21/20 A2995 RMK AO2 T02130197

More Conditions Fewer Conditions

Pressure 29.95 in
Visibility 10.0 miles
Clouds Overcast 900 ft
Dew Point 68 °F
Humidity 99%
Rainfall 0.11 in
Snow Depth Not available.
UV 0 out of 12
Pollen 1.00 out of 12
Air Quality Not available.
Flu Activity Not available.
METAR KVTI 290215Z AUTO 13004KT 10SM OVC009 21/20 A2995 RMK AO2 T02130197

More Conditions Fewer Conditions

10-Day Weather Forecast

Almanac

Astronomy

Aug. 28, 2014 Rise Set
Actual Time 6:28 AM CDT 7:47 PM CDT
Civil Twilight 5:59 AM CDT 8:16 PM CDT
Nautical Twilight 5:24 AM CDT 8:51 PM CDT
Astronomical Twilight 4:47 AM CDT 9:28 PM CDT
Moon 9:24 AM CDT (8/28) 9:07 PM CDT (8/28)
Length of Visible Light 14h 17m
Length of Day
13h 19m
Tomorrow will be 2m 42s shorter.
Waxing Crescent, 11% of the Moon is Illuminated
Today
Waxing Crescent
Sep 2
First Quarter
Sep 8
Full
Sep 15
Last Quarter
Sep 24
New

Today's Extremes

State Highs State Lows

Community

WunderPhotos

Upload Photos

1,748,134 photos uploaded!

Nearby

Snow Depth

Station Depth Elevation
No new snow has been reported.

Earthquake Activity

City Distance Mag. Time & Date
No recent earthquake activity has been reported nearby.
Minimum magnitude displayed is 2.5.

Coastal Water Temperatures

Place Temperature
No Stations Reporting

Nearby Weather Stations